createdAt,value
2023-05-08T00:00:02.792Z,99591.94
2023-05-08T00:02:37.080Z,99589.59
2023-05-08T00:05:08.898Z,99596.69
2023-05-08T00:07:38.604Z,99606.22
2023-05-08T00:10:11.120Z,99603.06
2023-05-08T00:12:41.561Z,99597.19
2023-05-08T00:15:11.326Z,99604.69
2023-05-08T00:17:41.792Z,99596.06
2023-05-08T00:20:13.188Z,99594.56
2023-05-08T00:22:48.877Z,99595.41
2023-05-08T00:25:18.628Z,99588.28
2023-05-08T00:27:52.687Z,99596.78
2023-05-08T00:30:23.461Z,99595.34
2023-05-08T00:32:55.192Z,99589.69
2023-05-08T00:35:26.593Z,99580.16
2023-05-08T00:38:01.615Z,99578.84
2023-05-08T00:40:35.178Z,99582.59
2023-05-08T00:43:05.409Z,99592.03
2023-05-08T00:45:46.585Z,99598.09
2023-05-08T00:48:21.976Z,99604.91
2023-05-08T00:50:58.730Z,99599.41
2023-05-08T00:53:45.611Z,99603.47
2023-05-08T00:56:26.454Z,99603.88
2023-05-08T00:58:58.610Z,99605.47
2023-05-08T01:01:37.116Z,99611.19
2023-05-08T01:04:09.943Z,99613.00
2023-05-08T01:06:47.081Z,99609.53
2023-05-08T01:09:19.311Z,99609.94
2023-05-08T01:12:03.562Z,99600.25
2023-05-08T01:14:55.547Z,99607.56
2023-05-08T01:18:04.993Z,99615.97
2023-05-08T01:21:02.581Z,99615.91
2023-05-08T01:23:54.388Z,99626.16
2023-05-08T01:26:59.166Z,99624.06
2023-05-08T01:29:54.929Z,99626.50
2023-05-08T01:32:37.703Z,99641.09
2023-05-08T01:35:35.184Z,99647.72
2023-05-08T01:38:27.553Z,99657.94
2023-05-08T01:41:11.594Z,99664.69
2023-05-08T01:43:46.881Z,99645.53
2023-05-08T01:46:26.420Z,99678.34
2023-05-08T01:49:06.480Z,99668.69
2023-05-08T01:51:49.753Z,99670.97
2023-05-08T01:54:26.389Z,99658.44
2023-05-08T01:56:59.093Z,99659.84
2023-05-08T01:59:36.758Z,99668.53
2023-05-08T02:02:10.309Z,99668.31
2023-05-08T02:04:42.987Z,99665.75
2023-05-08T02:07:16.788Z,99666.16
2023-05-08T02:09:50.400Z,99665.34
2023-05-08T02:12:20.571Z,99659.88
2023-05-08T02:14:54.666Z,99656.31
2023-05-08T02:17:30.266Z,99646.44
2023-05-08T02:20:01.603Z,99644.50
2023-05-08T02:22:34.844Z,99634.69
2023-05-08T02:25:13.213Z,99629.41
2023-05-08T02:27:49.113Z,99636.63
2023-05-08T02:30:22.936Z,99630.59
2023-05-08T02:32:59.637Z,99623.13
2023-05-08T02:35:36.719Z,99617.13
2023-05-08T02:38:11.760Z,99603.47
2023-05-08T02:40:48.927Z,99594.66
2023-05-08T02:43:19.224Z,99601.84
2023-05-08T02:46:02.946Z,99602.75
2023-05-08T02:48:43.866Z,99583.28
2023-05-08T02:51:38.433Z,99587.84
2023-05-08T02:54:26.606Z,99581.31
2023-05-08T02:57:35.259Z,99572.75
2023-05-08T03:00:31.370Z,99567.47
2023-05-08T03:03:25.037Z,99558.28
2023-05-08T03:05:59.294Z,99551.97
2023-05-08T03:08:39.289Z,99555.72
2023-05-08T03:11:19.794Z,99557.41
2023-05-08T03:14:02.621Z,99551.72
2023-05-08T03:16:36.786Z,99555.28
2023-05-08T03:19:13.163Z,99553.72
2023-05-08T03:21:50.178Z,99557.97
2023-05-08T03:24:22.179Z,99560.44
2023-05-08T03:26:53.633Z,99558.81
2023-05-08T03:29:29.500Z,99553.31
2023-05-08T03:32:06.242Z,99553.50
2023-05-08T03:34:53.908Z,99549.84
2023-05-08T03:37:26.993Z,99550.28
2023-05-08T03:39:59.572Z,99540.81
2023-05-08T03:42:35.665Z,99540.66
2023-05-08T03:45:08.681Z,99534.66
2023-05-08T03:47:38.555Z,99530.19
2023-05-08T03:50:11.959Z,99522.19
2023-05-08T03:52:46.696Z,99520.38
2023-05-08T03:55:19.034Z,99510.91
2023-05-08T03:58:26.788Z,99515.19
2023-05-08T04:01:35.327Z,99512.16
2023-05-08T04:04:41.965Z,99510.84
2023-05-08T04:07:37.173Z,99508.63
2023-05-08T04:10:10.174Z,99504.88
2023-05-08T04:13:27.328Z,99509.81
2023-05-08T04:16:23.239Z,99502.03
2023-05-08T04:19:04.892Z,99490.53
2023-05-08T04:21:37.441Z,99491.34
2023-05-08T04:24:19.224Z,99500.16
2023-05-08T04:26:53.490Z,99498.03
2023-05-08T04:29:29.268Z,99493.25
2023-05-08T04:32:05.266Z,99481.69
2023-05-08T04:34:37.200Z,99484.06
2023-05-08T04:37:09.825Z,99484.34
2023-05-08T04:39:43.723Z,99480.94
2023-05-08T04:42:18.223Z,99489.28
2023-05-08T04:44:49.873Z,99484.53
2023-05-08T04:47:21.767Z,99475.06
2023-05-08T04:49:51.567Z,99484.72
2023-05-08T04:52:23.274Z,99487.28
2023-05-08T04:54:53.345Z,99489.16
2023-05-08T04:57:24.867Z,99489.22
2023-05-08T04:59:58.124Z,99478.59
2023-05-08T05:02:31.726Z,99482.75
2023-05-08T05:05:03.205Z,99477.06
2023-05-08T05:07:34.779Z,99486.75
2023-05-08T05:10:06.764Z,99488.41
2023-05-08T05:12:37.225Z,99489.09
2023-05-08T05:15:09.888Z,99493.94
2023-05-08T05:17:40.603Z,99488.94
2023-05-08T05:20:11.044Z,99489.19
2023-05-08T05:22:48.944Z,99496.69
2023-05-08T05:25:19.355Z,99477.72
2023-05-08T05:27:51.078Z,99480.91
2023-05-08T05:30:22.026Z,99476.06
2023-05-08T05:32:51.253Z,99478.41
2023-05-08T05:35:26.408Z,99489.63
2023-05-08T05:37:57.620Z,99487.44
2023-05-08T05:40:28.521Z,99484.22
2023-05-08T05:42:57.138Z,99465.44
2023-05-08T05:45:27.335Z,99470.53
2023-05-08T05:47:57.002Z,99475.38
2023-05-08T05:50:29.038Z,99468.69
2023-05-08T05:52:59.214Z,99466.00
2023-05-08T05:55:31.189Z,99459.47
2023-05-08T05:58:03.418Z,99468.38
2023-05-08T06:00:35.738Z,99466.53
2023-05-08T06:03:06.942Z,99465.38
2023-05-08T06:05:36.947Z,99458.97
2023-05-08T06:08:10.265Z,99458.53
2023-05-08T06:10:41.648Z,99456.25
2023-05-08T06:13:12.471Z,99457.44
2023-05-08T06:15:58.072Z,99461.47
2023-05-08T06:18:29.632Z,99463.50
2023-05-08T06:21:10.316Z,99469.72
2023-05-08T06:23:39.874Z,99465.72
2023-05-08T06:26:51.069Z,99467.94
2023-05-08T06:30:18.498Z,99470.94
2023-05-08T06:34:03.105Z,99466.34
2023-05-08T06:36:51.212Z,99481.78
2023-05-08T06:39:23.501Z,99484.00
2023-05-08T06:42:02.388Z,99487.72
2023-05-08T06:44:34.582Z,99486.22
2023-05-08T06:47:05.864Z,99484.94
2023-05-08T06:49:38.933Z,99480.50
2023-05-08T06:52:09.694Z,99481.28
2023-05-08T06:54:42.581Z,99495.06
2023-05-08T06:57:18.261Z,99498.44
2023-05-08T06:59:50.881Z,99493.44
2023-05-08T07:02:22.766Z,99488.28
2023-05-08T07:04:53.805Z,99494.03
2023-05-08T07:07:26.752Z,99484.50
2023-05-08T07:09:56.505Z,99479.56
2023-05-08T07:12:29.938Z,99476.38
2023-05-08T07:15:03.539Z,99466.00
2023-05-08T07:17:38.361Z,99468.44
2023-05-08T07:20:16.637Z,99461.34
2023-05-08T07:22:55.877Z,99459.34
2023-05-08T07:25:35.306Z,99451.66
2023-05-08T07:28:12.798Z,99450.00
2023-05-08T07:30:54.996Z,99452.59
2023-05-08T07:33:35.377Z,99445.88
2023-05-08T07:36:13.525Z,99452.69
2023-05-08T07:39:08.157Z,99453.94
2023-05-08T07:41:42.707Z,99465.72
2023-05-08T07:44:53.790Z,99463.41
2023-05-08T07:47:58.708Z,99462.47
2023-05-08T07:50:38.828Z,99465.47
2023-05-08T07:53:10.521Z,99473.31
2023-05-08T07:56:14.655Z,99466.19
2023-05-08T07:58:53.355Z,99467.56
2023-05-08T08:01:34.760Z,99470.66
2023-05-08T08:04:08.464Z,99461.00
2023-05-08T08:06:42.416Z,99458.34
2023-05-08T08:09:21.264Z,99468.44
2023-05-08T08:11:55.356Z,99467.91
2023-05-08T08:14:35.947Z,99476.22
2023-05-08T08:17:15.929Z,99474.75
2023-05-08T08:23:33.211Z,99471.66
2023-05-08T08:26:05.486Z,99471.78
2023-05-08T08:28:51.347Z,99476.09
2023-05-08T08:31:34.838Z,99473.09
2023-05-08T08:34:09.050Z,99464.56
2023-05-08T08:36:56.181Z,99461.09
2023-05-08T08:39:42.869Z,99470.97
2023-05-08T08:42:26.569Z,99473.09
2023-05-08T08:45:12.209Z,99474.72
2023-05-08T08:51:05.717Z,99471.69
2023-05-08T08:53:49.923Z,99471.44
2023-05-08T08:56:25.547Z,99460.03
2023-05-08T08:59:10.444Z,99455.97
2023-05-08T09:02:16.935Z,99475.19
2023-05-08T09:05:16.903Z,99472.09
2023-05-08T09:08:09.791Z,99456.75
2023-05-08T09:10:39.834Z,99480.22
2023-05-08T09:13:31.228Z,99474.88
2023-05-08T09:16:13.131Z,99464.16
2023-05-08T09:18:57.832Z,99460.41
2023-05-08T09:21:31.230Z,99468.81
2023-05-08T09:24:07.313Z,99459.50
2023-05-08T09:27:46.773Z,99454.00
2023-05-08T09:30:23.060Z,99459.78
2023-05-08T09:33:09.166Z,99463.72
2023-05-08T09:35:41.765Z,99466.81
2023-05-08T09:39:00.293Z,99456.09
2023-05-08T09:42:04.636Z,99456.31
2023-05-08T09:49:26.029Z,99441.13
2023-05-08T09:52:06.439Z,99433.56
2023-05-08T09:55:41.765Z,99439.72
2023-05-08T09:58:59.393Z,99444.38
2023-05-08T10:05:28.620Z,99456.41
2023-05-08T10:08:21.573Z,99461.25
2023-05-08T10:10:58.034Z,99465.16
2023-05-08T10:13:28.652Z,99460.84
2023-05-08T10:16:03.151Z,99468.72
2023-05-08T10:18:43.830Z,99473.09
2023-05-08T10:21:39.557Z,99471.00
2023-05-08T10:24:23.505Z,99477.63
2023-05-08T10:27:19.198Z,99482.97
2023-05-08T10:30:02.586Z,99493.00
2023-05-08T10:39:12.401Z,99499.94
2023-05-08T10:42:31.769Z,99504.00
2023-05-08T10:45:19.049Z,99515.63
2023-05-08T10:49:06.689Z,99509.75
2023-05-08T10:57:25.207Z,99513.91
2023-05-08T11:03:34.335Z,99521.72
2023-05-08T11:06:07.563Z,99522.94
2023-05-08T11:09:00.457Z,99530.34
2023-05-08T11:11:43.776Z,99529.50
2023-05-08T11:14:25.909Z,99528.16
2023-05-08T11:17:03.590Z,99540.38
2023-05-08T11:19:35.052Z,99547.13
2023-05-08T11:22:37.156Z,99552.31
2023-05-08T11:25:18.341Z,99550.72
2023-05-08T11:27:58.681Z,99546.16
2023-05-08T11:30:39.772Z,99554.81
2023-05-08T11:33:11.698Z,99556.09
2023-05-08T11:36:02.367Z,99545.75
2023-05-08T11:38:41.394Z,99551.78
2023-05-08T11:41:33.881Z,99544.03
2023-05-08T11:44:13.179Z,99548.63
2023-05-08T11:46:55.010Z,99561.16
2023-05-08T11:49:32.058Z,99566.94
2023-05-08T11:52:07.246Z,99576.84
2023-05-08T11:54:53.405Z,99582.09
2023-05-08T11:57:23.749Z,99592.63
2023-05-08T12:00:06.868Z,99599.53
2023-05-08T12:03:23.596Z,99602.59
2023-05-08T12:06:03.934Z,99601.66
2023-05-08T12:08:42.164Z,99605.22
2023-05-08T12:11:14.647Z,99603.97
2023-05-08T12:14:06.718Z,99594.97
2023-05-08T12:16:43.846Z,99593.31
2023-05-08T12:19:34.137Z,99597.75
2023-05-08T12:22:05.466Z,99599.47
2023-05-08T12:24:37.920Z,99603.72
2023-05-08T12:27:10.423Z,99614.31
2023-05-08T12:30:05.790Z,99613.34
2023-05-08T12:32:48.108Z,99600.91
2023-05-08T12:35:29.172Z,99607.56
2023-05-08T12:38:05.293Z,99607.47
2023-05-08T12:40:43.488Z,99600.53
2023-05-08T12:43:23.304Z,99599.22
2023-05-08T12:49:08.083Z,99599.09
2023-05-08T12:52:26.609Z,99601.56
2023-05-08T12:55:58.548Z,99592.28
2023-05-08T12:58:37.700Z,99589.31
2023-05-08T13:01:17.902Z,99595.25
2023-05-08T13:04:01.450Z,99595.59
2023-05-08T13:06:33.305Z,99602.75
2023-05-08T13:09:04.105Z,99594.34
2023-05-08T13:11:44.209Z,99583.91
2023-05-08T13:14:22.152Z,99594.53
2023-05-08T13:16:53.648Z,99596.53
2023-05-08T13:19:23.523Z,99599.75
2023-05-08T13:21:58.769Z,99602.31
2023-05-08T13:24:39.042Z,99602.53
2023-05-08T13:32:55.975Z,99603.81
2023-05-08T13:47:05.445Z,99614.56
2023-05-08T13:49:38.823Z,99618.13
2023-05-08T13:52:09.897Z,99628.28
2023-05-08T13:54:41.880Z,99621.31
2023-05-08T13:57:13.188Z,99625.75
2023-05-08T13:59:43.292Z,99630.44
2023-05-08T14:02:19.805Z,99626.41
2023-05-08T14:04:53.891Z,99643.84
2023-05-08T14:07:26.116Z,99630.69
2023-05-08T14:09:59.748Z,99617.78
2023-05-08T14:12:38.643Z,99627.63
2023-05-08T14:15:13.451Z,99634.22
2023-05-08T14:17:54.354Z,99635.03
2023-05-08T14:20:24.015Z,99629.16
2023-05-08T14:30:02.140Z,99629.03
2023-05-08T14:32:39.149Z,99623.50
2023-05-08T14:35:30.781Z,99634.28
2023-05-08T14:38:22.208Z,99634.13
2023-05-08T14:41:04.568Z,99637.25
2023-05-08T14:43:34.432Z,99635.53
2023-05-08T14:46:11.493Z,99640.56
2023-05-08T14:48:43.488Z,99638.75
2023-05-08T14:51:22.324Z,99641.50
2023-05-08T14:53:57.998Z,99645.59
2023-05-08T14:56:40.534Z,99648.69
2023-05-08T14:59:23.740Z,99648.84
2023-05-08T15:02:00.273Z,99647.88
2023-05-08T15:04:32.049Z,99651.75
2023-05-08T15:07:03.259Z,99658.53
2023-05-08T15:09:43.421Z,99651.59
2023-05-08T15:12:22.940Z,99646.78
2023-05-08T15:14:56.526Z,99650.63
2023-05-08T15:17:28.456Z,99654.34
2023-05-08T15:20:06.174Z,99660.31
2023-05-08T15:22:39.595Z,99651.13
2023-05-08T15:25:15.406Z,99656.94
2023-05-08T15:28:03.089Z,99649.34
2023-05-08T15:30:35.359Z,99643.34
2023-05-08T15:33:06.981Z,99627.53
2023-05-08T15:35:39.892Z,99634.47
2023-05-08T15:38:13.456Z,99644.16
2023-05-08T15:41:02.264Z,99649.75
2023-05-08T15:43:32.224Z,99634.78
2023-05-08T15:46:03.931Z,99634.22
2023-05-08T15:48:35.308Z,99612.28
2023-05-08T15:51:13.258Z,99613.53
2023-05-08T15:53:53.389Z,99604.78
2023-05-08T15:56:28.411Z,99595.69
2023-05-08T15:58:59.587Z,99594.38
2023-05-08T16:01:40.725Z,99607.16
2023-05-08T16:04:13.074Z,99579.72
2023-05-08T16:06:43.363Z,99590.50
2023-05-08T16:09:20.926Z,99581.72
2023-05-08T16:11:54.987Z,99582.16
2023-05-08T16:14:23.777Z,99563.34
2023-05-08T16:16:56.057Z,99563.47
2023-05-08T16:19:34.735Z,99551.41
2023-05-08T16:22:06.026Z,99549.56
2023-05-08T16:24:42.998Z,99533.81
2023-05-08T16:27:25.426Z,99532.22
2023-05-08T16:30:15.243Z,99541.53
2023-05-08T16:36:37.304Z,99532.13
2023-05-08T16:39:55.707Z,99528.88
2023-05-08T16:42:41.696Z,99535.41
2023-05-08T16:45:18.022Z,99532.75
2023-05-08T16:47:59.615Z,99533.59
2023-05-08T16:50:42.335Z,99524.97
2023-05-08T16:53:21.994Z,99532.81
2023-05-08T16:55:58.931Z,99524.97
2023-05-08T16:58:32.211Z,99530.06
2023-05-08T17:01:09.048Z,99539.34
2023-05-08T17:03:46.844Z,99531.34
2023-05-08T17:06:23.169Z,99529.34
2023-05-08T17:09:01.799Z,99524.72
2023-05-08T17:11:31.935Z,99526.72
2023-05-08T17:14:05.738Z,99524.09
2023-05-08T17:16:40.147Z,99527.78
2023-05-08T17:19:11.510Z,99523.97
2023-05-08T17:21:53.846Z,99538.47
2023-05-08T17:24:34.935Z,99529.56
2023-05-08T17:27:14.608Z,99518.69
2023-05-08T17:29:53.538Z,99519.25
2023-05-08T17:41:22.097Z,99507.03
2023-05-08T17:47:59.921Z,99504.66
2023-05-08T17:50:34.334Z,99516.81
2023-05-08T17:57:04.024Z,99496.19
2023-05-08T18:04:22.549Z,99489.41
2023-05-08T18:07:03.484Z,99489.63
2023-05-08T18:10:01.717Z,99494.22
2023-05-08T18:12:34.484Z,99488.88
2023-05-08T18:15:07.678Z,99494.00
2023-05-08T18:17:56.348Z,99486.88
2023-05-08T18:20:27.807Z,99500.69
2023-05-08T18:23:10.767Z,99498.03
2023-05-08T18:28:46.968Z,99495.81
2023-05-08T18:31:26.902Z,99483.94
2023-05-08T18:33:55.231Z,99478.72
2023-05-08T18:36:23.865Z,99473.88
2023-05-08T18:38:52.628Z,99478.47
2023-05-08T18:41:22.253Z,99461.72
2023-05-08T18:43:51.199Z,99463.41
2023-05-08T18:46:20.963Z,99469.72
2023-05-08T18:48:49.891Z,99456.72
2023-05-08T18:51:18.638Z,99454.22
2023-05-08T18:53:51.135Z,99451.84
2023-05-08T18:56:21.805Z,99456.06
2023-05-08T18:58:53.907Z,99454.38
2023-05-08T19:01:34.293Z,99449.34
2023-05-08T19:04:17.070Z,99450.38
2023-05-08T19:06:46.951Z,99442.16
2023-05-08T19:09:16.556Z,99426.84
2023-05-08T19:11:47.731Z,99430.91
2023-05-08T19:14:17.222Z,99443.59
2023-05-08T19:16:47.251Z,99431.47
2023-05-08T19:19:19.058Z,99428.59
2023-05-08T19:21:49.210Z,99434.09
2023-05-08T19:24:23.536Z,99435.97
2023-05-08T19:27:00.912Z,99421.03
2023-05-08T19:29:30.315Z,99444.31
2023-05-08T19:31:58.994Z,99441.59
2023-05-08T19:34:27.524Z,99441.09
2023-05-08T19:36:56.339Z,99437.91
2023-05-08T19:39:24.800Z,99432.59
2023-05-08T19:41:53.455Z,99427.69
2023-05-08T19:44:22.461Z,99435.59
2023-05-08T19:46:52.371Z,99434.47
2023-05-08T19:49:21.150Z,99429.75
2023-05-08T19:51:50.143Z,99423.44
2023-05-08T19:54:18.649Z,99416.56
2023-05-08T19:56:47.345Z,99409.44
2023-05-08T19:59:16.999Z,99406.94
2023-05-08T20:01:45.973Z,99401.13
2023-05-08T20:04:14.948Z,99404.13
2023-05-08T20:06:44.428Z,99413.66
2023-05-08T20:09:14.704Z,99398.69
2023-05-08T20:11:43.434Z,99395.34
2023-05-08T20:14:13.285Z,99399.44
2023-05-08T20:16:43.520Z,99398.56
2023-05-08T20:19:13.373Z,99393.53
2023-05-08T20:21:54.497Z,99409.44
2023-05-08T20:24:30.256Z,99405.00
2023-05-08T20:27:00.958Z,99398.97
2023-05-08T20:29:30.548Z,99400.22
2023-05-08T20:31:59.720Z,99398.03
2023-05-08T20:34:30.249Z,99400.16
2023-05-08T20:36:59.908Z,99408.31
2023-05-08T20:39:29.076Z,99400.41
2023-05-08T20:41:58.201Z,99410.59
2023-05-08T20:44:27.832Z,99408.97
2023-05-08T20:46:57.937Z,99410.78
2023-05-08T20:49:28.790Z,99414.00
2023-05-08T20:52:00.818Z,99421.91
2023-05-08T20:54:33.533Z,99421.34
2023-05-08T20:57:02.573Z,99413.19
2023-05-08T20:59:32.111Z,99406.88
2023-05-08T21:02:01.309Z,99421.44
2023-05-08T21:04:30.525Z,99420.41
2023-05-08T21:06:59.301Z,99424.56
2023-05-08T21:09:27.713Z,99415.41
2023-05-08T21:11:56.486Z,99422.16
2023-05-08T21:14:25.102Z,99427.81
2023-05-08T21:16:54.607Z,99432.00
2023-05-08T21:19:24.417Z,99435.06
2023-05-08T21:21:53.632Z,99436.63
2023-05-08T21:24:26.034Z,99439.94
2023-05-08T21:26:56.682Z,99427.75
2023-05-08T21:29:25.399Z,99441.09
2023-05-08T21:31:54.046Z,99435.19
2023-05-08T21:34:22.936Z,99430.34
2023-05-08T21:36:51.476Z,99435.03
2023-05-08T21:39:20.312Z,99432.22
2023-05-08T21:41:48.930Z,99429.78
2023-05-08T21:44:17.475Z,99428.13
2023-05-08T21:46:46.658Z,99423.75
2023-05-08T21:49:14.993Z,99428.94
2023-05-08T21:51:45.197Z,99433.53
2023-05-08T21:54:16.959Z,99436.50
2023-05-08T21:56:46.239Z,99420.72
2023-05-08T21:59:14.912Z,99434.00
2023-05-08T22:01:43.415Z,99440.75
2023-05-08T22:04:12.488Z,99437.13
2023-05-08T22:06:43.699Z,99436.06
2023-05-08T22:09:14.203Z,99436.16
2023-05-08T22:11:43.216Z,99441.69
2023-05-08T22:14:19.452Z,99446.56
2023-05-08T22:16:50.492Z,99446.03
2023-05-08T22:19:18.748Z,99445.53
2023-05-08T22:21:47.306Z,99443.28
2023-05-08T22:24:16.807Z,99449.00
2023-05-08T22:26:46.746Z,99450.97
2023-05-08T22:29:17.341Z,99444.75
2023-05-08T22:31:51.426Z,99450.53
2023-05-08T22:34:21.441Z,99463.38
2023-05-08T22:36:50.303Z,99454.56
2023-05-08T22:39:18.648Z,99449.41
2023-05-08T22:41:51.547Z,99443.25
2023-05-08T22:44:21.192Z,99445.66
2023-05-08T22:51:18.551Z,99439.75
2023-05-08T22:53:49.003Z,99437.78
2023-05-08T22:56:18.391Z,99437.84
2023-05-08T22:58:48.028Z,99445.84
2023-05-08T23:01:18.511Z,99442.47
2023-05-08T23:03:47.200Z,99449.09
2023-05-08T23:06:17.096Z,99452.31
2023-05-08T23:10:25.158Z,99442.50
2023-05-08T23:12:54.439Z,99456.19
2023-05-08T23:15:22.895Z,99454.53
2023-05-08T23:17:51.416Z,99465.94
2023-05-08T23:20:19.933Z,99465.72
2023-05-08T23:22:49.064Z,99468.38
2023-05-08T23:25:18.818Z,99464.59
2023-05-08T23:27:48.490Z,99470.94
2023-05-08T23:30:18.057Z,99479.44
2023-05-08T23:32:47.281Z,99479.75
2023-05-08T23:35:17.301Z,99487.34
2023-05-08T23:37:46.953Z,99489.19
2023-05-08T23:40:16.388Z,99484.16
2023-05-08T23:42:45.998Z,99484.78
2023-05-08T23:45:16.501Z,99485.19
2023-05-08T23:47:48.859Z,99491.44
2023-05-08T23:50:17.890Z,99490.84
2023-05-08T23:52:47.189Z,99500.81
2023-05-08T23:55:16.332Z,99507.22
2023-05-08T23:57:45.273Z,99508.19
